createdAt,value
2024-01-06T00:00:24.357Z,31.73
2024-01-06T00:02:51.240Z,39.88
2024-01-06T00:05:18.030Z,42.75
2024-01-06T00:07:44.632Z,39.47
2024-01-06T00:10:12.070Z,36.38
2024-01-06T00:12:39.608Z,39.35
2024-01-06T00:15:07.039Z,39.28
2024-01-06T00:17:33.720Z,42.45
2024-01-06T00:20:01.555Z,43.15
2024-01-06T00:22:28.406Z,44.85
2024-01-06T00:24:55.048Z,41.97
2024-01-06T00:27:21.713Z,43.60
2024-01-06T00:29:48.605Z,45.92
2024-01-06T00:32:15.423Z,41.92
2024-01-06T00:34:42.103Z,46.38
2024-01-06T00:37:08.802Z,44.30
2024-01-06T00:39:35.576Z,32.78
2024-01-06T00:42:02.212Z,28.65
2024-01-06T00:44:28.957Z,36.58
2024-01-06T00:46:55.510Z,37.58
2024-01-06T00:49:22.189Z,43.67
2024-01-06T00:51:49.091Z,41.03
2024-01-06T00:54:15.832Z,41.42
2024-01-06T00:56:43.980Z,45.17
2024-01-06T00:59:10.972Z,34.15
2024-01-06T01:01:37.647Z,28.48
2024-01-06T01:04:04.616Z,22.10
2024-01-06T01:06:31.369Z,33.88
2024-01-06T01:08:57.990Z,29.35
2024-01-06T01:11:24.607Z,26.50
2024-01-06T01:13:51.250Z,27.67
2024-01-06T01:16:17.869Z,26.40
2024-01-06T01:18:44.754Z,28.98
2024-01-06T01:21:11.896Z,25.15
2024-01-06T01:23:38.540Z,23.02
2024-01-06T01:26:05.245Z,20.83
2024-01-06T01:28:34.646Z,20.45
2024-01-06T01:31:01.380Z,20.48
2024-01-06T01:33:28.374Z,18.67
2024-01-06T01:35:55.070Z,18.98
2024-01-06T01:38:21.665Z,17.90
2024-01-06T01:40:48.302Z,17.40
2024-01-06T01:43:19.275Z,22.50
2024-01-06T01:45:51.218Z,16.90
2024-01-06T01:48:18.227Z,16.08
2024-01-06T01:50:45.136Z,14.10
2024-01-06T01:53:13.393Z,16.23
2024-01-06T01:55:41.702Z,16.98
2024-01-06T01:58:09.142Z,38.70
2024-01-06T02:00:36.080Z,15.40
2024-01-06T02:03:05.731Z,15.80
2024-01-06T02:05:32.444Z,12.38
2024-01-06T02:07:59.362Z,13.13
2024-01-06T02:10:26.039Z,10.95
2024-01-06T02:12:52.926Z,14.90
2024-01-06T02:15:20.509Z,10.95
2024-01-06T02:17:47.293Z,10.38
2024-01-06T02:20:15.554Z,10.82
2024-01-06T02:22:42.140Z,10.57
2024-01-06T02:25:13.631Z,13.40
2024-01-06T02:27:40.724Z,11.82
2024-01-06T02:30:08.617Z,13.80
2024-01-06T02:32:35.779Z,13.60
2024-01-06T02:35:02.520Z,24.13
2024-01-06T02:37:29.231Z,22.42
2024-01-06T02:39:55.860Z,18.52
2024-01-06T02:42:22.811Z,18.65
2024-01-06T02:44:49.411Z,19.08
2024-01-06T02:47:16.034Z,16.13
2024-01-06T02:49:42.861Z,11.23
2024-01-06T02:52:09.515Z,14.75
2024-01-06T02:54:36.198Z,17.17
2024-01-06T02:57:02.798Z,13.25
2024-01-06T02:59:29.348Z,11.23
2024-01-06T03:01:56.007Z,14.10
2024-01-06T03:04:22.731Z,16.00
2024-01-06T03:06:53.608Z,15.63
2024-01-06T03:09:23.124Z,17.02
2024-01-06T03:11:49.748Z,16.92
2024-01-06T03:14:16.439Z,17.42
2024-01-06T03:16:43.089Z,17.40
2024-01-06T03:19:09.753Z,17.60
2024-01-06T03:21:39.213Z,16.00
2024-01-06T03:24:06.481Z,17.63
2024-01-06T03:26:33.283Z,17.90
2024-01-06T03:29:00.622Z,17.83
2024-01-06T03:31:27.271Z,18.55
2024-01-06T03:33:55.817Z,17.88
2024-01-06T03:36:23.084Z,18.45
2024-01-06T03:38:49.903Z,19.35
2024-01-06T03:41:16.704Z,18.05
2024-01-06T03:43:43.311Z,19.63
2024-01-06T03:46:09.992Z,22.75
2024-01-06T03:48:36.743Z,20.17
2024-01-06T03:51:03.963Z,21.27
2024-01-06T03:53:30.608Z,20.63
2024-01-06T03:55:57.208Z,25.92
2024-01-06T03:58:23.876Z,21.95
2024-01-06T04:00:50.575Z,27.92
2024-01-06T04:03:17.343Z,42.03
2024-01-06T04:05:44.068Z,31.88
2024-01-06T04:08:10.676Z,25.35
2024-01-06T04:10:37.438Z,26.60
2024-01-06T04:13:04.273Z,31.48
2024-01-06T04:15:30.873Z,27.92
2024-01-06T04:17:57.806Z,31.40
2024-01-06T04:20:24.435Z,27.50
2024-01-06T04:22:51.076Z,29.00
2024-01-06T04:25:17.804Z,21.20
2024-01-06T04:27:46.473Z,14.48
2024-01-06T04:30:14.400Z,20.10
2024-01-06T04:32:41.554Z,19.10
2024-01-06T04:35:08.733Z,27.00
2024-01-06T04:37:35.399Z,23.77
2024-01-06T04:40:02.267Z,24.52
2024-01-06T04:42:28.894Z,26.00
2024-01-06T04:44:55.603Z,28.38
2024-01-06T04:47:22.274Z,28.08
2024-01-06T04:49:49.002Z,27.52
2024-01-06T04:52:15.702Z,28.05
2024-01-06T04:54:42.385Z,29.95
2024-01-06T04:57:09.057Z,20.38
2024-01-06T04:59:35.672Z,28.05
2024-01-06T05:02:02.699Z,22.02
2024-01-06T05:04:31.960Z,28.38
2024-01-06T05:06:58.743Z,29.02
2024-01-06T05:09:26.972Z,26.98
2024-01-06T05:11:53.546Z,28.92
2024-01-06T05:14:20.175Z,29.30
2024-01-06T05:16:47.064Z,31.95
2024-01-06T05:19:20.538Z,31.70
2024-01-06T05:21:49.263Z,28.35
2024-01-06T05:24:15.940Z,30.63
2024-01-06T05:26:45.388Z,33.42
2024-01-06T05:29:12.067Z,36.13
2024-01-06T05:31:38.743Z,35.50
2024-01-06T05:34:05.917Z,59.95
2024-01-06T05:36:33.129Z,65.47
2024-01-06T05:39:01.571Z,38.33
2024-01-06T05:41:28.281Z,44.45
2024-01-06T05:43:55.077Z,45.50
2024-01-06T05:46:23.122Z,63.30
2024-01-06T05:48:49.897Z,55.83
2024-01-06T05:51:16.776Z,37.95
2024-01-06T05:53:43.478Z,38.90
2024-01-06T05:56:10.684Z,46.72
2024-01-06T06:01:04.255Z,50.83
2024-01-06T06:03:31.010Z,43.83
2024-01-06T06:05:57.690Z,35.53
2024-01-06T06:08:24.366Z,39.55
2024-01-06T06:11:03.123Z,37.67
2024-01-06T06:13:29.969Z,46.38
2024-01-06T06:15:57.195Z,61.58
2024-01-06T06:20:50.806Z,37.33
2024-01-06T06:23:17.401Z,37.17
2024-01-06T06:25:44.229Z,37.78
2024-01-06T06:28:10.863Z,36.90
2024-01-06T06:30:37.632Z,37.20
2024-01-06T06:33:04.724Z,33.63
2024-01-06T06:35:31.434Z,33.13
2024-01-06T06:37:58.227Z,26.67
2024-01-06T06:40:25.218Z,35.33
2024-01-06T06:42:51.933Z,25.77
2024-01-06T06:45:21.788Z,38.45
2024-01-06T06:47:48.512Z,33.97
2024-01-06T06:50:15.310Z,33.75
2024-01-06T06:52:43.267Z,56.10
2024-01-06T06:55:09.954Z,39.78
2024-01-06T06:57:37.195Z,38.65
2024-01-06T07:00:04.268Z,37.22
2024-01-06T07:02:30.985Z,62.35
2024-01-06T07:04:57.622Z,76.00
2024-01-06T07:07:24.188Z,55.40
2024-01-06T07:09:50.948Z,39.83
2024-01-06T07:12:17.607Z,36.33
2024-01-06T07:14:44.168Z,37.58
2024-01-06T07:17:11.030Z,36.22
2024-01-06T07:19:39.741Z,39.70
2024-01-06T07:22:07.442Z,38.28
2024-01-06T07:24:34.539Z,36.67
2024-01-06T07:27:01.163Z,39.70
2024-01-06T07:29:27.695Z,40.17
2024-01-06T07:31:54.400Z,42.90
2024-01-06T07:34:21.276Z,42.22
2024-01-06T07:36:47.966Z,61.67
2024-01-06T07:39:14.897Z,60.15
2024-01-06T07:41:41.543Z,60.58
2024-01-06T07:44:08.195Z,44.55
2024-01-06T07:46:36.477Z,45.80
2024-01-06T07:49:03.192Z,50.45
2024-01-06T07:51:29.912Z,50.60
2024-01-06T07:53:56.705Z,46.42
2024-01-06T07:56:23.314Z,30.55
2024-01-06T07:58:49.981Z,33.00
2024-01-06T08:01:16.758Z,34.65
2024-01-06T08:03:43.937Z,39.58
2024-01-06T08:06:11.419Z,45.08
2024-01-06T08:08:38.549Z,49.78
2024-01-06T08:11:05.332Z,52.92
2024-01-06T08:13:31.933Z,53.08
2024-01-06T08:15:58.842Z,48.67
2024-01-06T08:18:25.881Z,41.47
2024-01-06T08:20:53.174Z,39.92
2024-01-06T08:23:21.747Z,42.40
2024-01-06T08:25:48.444Z,43.30
2024-01-06T08:28:16.079Z,35.35
2024-01-06T08:30:44.082Z,45.53
2024-01-06T08:33:11.135Z,58.75
2024-01-06T08:35:41.736Z,54.40
2024-01-06T08:38:08.746Z,38.63
2024-01-06T08:40:36.555Z,35.10
2024-01-06T08:43:04.185Z,35.03
2024-01-06T08:45:31.089Z,38.63
2024-01-06T08:47:58.370Z,33.45
2024-01-06T08:52:51.562Z,35.60
2024-01-06T08:55:18.166Z,34.72
2024-01-06T08:57:44.855Z,38.05
2024-01-06T09:00:12.303Z,35.20
2024-01-06T09:02:39.525Z,39.25
2024-01-06T09:05:06.590Z,29.83
2024-01-06T09:07:33.270Z,34.83
2024-01-06T09:10:00.731Z,25.92
2024-01-06T09:12:27.593Z,21.33
2024-01-06T09:14:54.237Z,11.20
2024-01-06T09:17:23.953Z,19.23
2024-01-06T09:19:50.874Z,10.82
2024-01-06T09:22:17.546Z,13.20
2024-01-06T09:24:44.415Z,7.05
2024-01-06T09:27:11.099Z,6.57
2024-01-06T09:29:37.692Z,6.65
2024-01-06T09:32:04.741Z,7.15
2024-01-06T09:34:31.504Z,6.75
2024-01-06T09:36:58.308Z,5.70
2024-01-06T09:39:25.162Z,9.52
2024-01-06T09:41:51.957Z,5.25
2024-01-06T09:44:19.441Z,13.68
2024-01-06T09:46:46.131Z,6.93
2024-01-06T09:49:14.728Z,4.78
2024-01-06T09:51:41.741Z,4.30
2024-01-06T09:54:13.645Z,8.02
2024-01-06T09:56:40.712Z,8.18
2024-01-06T09:59:07.292Z,7.07
2024-01-06T10:01:33.923Z,10.18
2024-01-06T10:04:00.662Z,8.88
2024-01-06T10:06:27.684Z,8.45
2024-01-06T10:08:54.583Z,8.95
2024-01-06T10:11:23.825Z,7.88
2024-01-06T10:13:51.982Z,14.52
2024-01-06T10:16:20.025Z,9.23
2024-01-06T10:18:51.203Z,7.93
2024-01-06T10:21:23.091Z,10.57
2024-01-06T10:23:49.974Z,22.05
2024-01-06T10:26:16.642Z,6.88
2024-01-06T10:28:43.309Z,7.38
2024-01-06T10:31:10.600Z,13.00
2024-01-06T10:36:06.258Z,20.02
2024-01-06T10:38:35.593Z,5.47
2024-01-06T10:41:08.251Z,9.85
2024-01-06T10:43:37.906Z,7.22
2024-01-06T10:46:06.167Z,13.52
2024-01-06T10:48:36.741Z,8.20
2024-01-06T10:51:08.567Z,6.57
2024-01-06T10:53:38.550Z,6.22
2024-01-06T10:56:05.958Z,5.70
2024-01-06T11:01:01.451Z,8.20
2024-01-06T11:03:30.899Z,8.32
2024-01-06T11:06:00.237Z,6.40
2024-01-06T11:08:29.742Z,5.38
2024-01-06T11:10:56.691Z,12.95
2024-01-06T11:13:24.275Z,8.20
2024-01-06T11:15:55.827Z,5.30
2024-01-06T11:18:35.906Z,10.30
2024-01-06T11:21:15.461Z,9.52
2024-01-06T11:23:42.187Z,14.30
2024-01-06T11:26:08.787Z,6.72
2024-01-06T11:28:54.753Z,8.68
2024-01-06T11:31:21.418Z,6.90
2024-01-06T11:33:52.567Z,6.28
2024-01-06T11:36:21.300Z,7.57
2024-01-06T11:38:51.829Z,7.45
2024-01-06T11:41:53.377Z,7.20
2024-01-06T11:44:25.710Z,8.77
2024-01-06T11:46:54.304Z,6.65
2024-01-06T11:49:22.459Z,7.03
2024-01-06T11:51:50.128Z,7.18
2024-01-06T11:54:17.344Z,6.75
2024-01-06T11:56:44.108Z,8.13
2024-01-06T11:59:10.737Z,7.07
2024-01-06T12:01:39.083Z,9.50
2024-01-06T12:04:08.375Z,8.60
2024-01-06T12:06:35.703Z,6.93
2024-01-06T12:11:39.022Z,9.23
2024-01-06T12:14:05.970Z,8.10
2024-01-06T12:16:34.003Z,7.57
2024-01-06T12:19:02.286Z,7.82
2024-01-06T12:21:29.182Z,7.53
2024-01-06T12:24:13.376Z,5.13
2024-01-06T12:26:42.899Z,8.25
2024-01-06T12:29:10.157Z,4.97
2024-01-06T12:31:40.136Z,6.60
2024-01-06T12:34:08.847Z,7.53
2024-01-06T12:36:44.690Z,10.20
2024-01-06T12:39:15.788Z,6.40
2024-01-06T12:41:42.447Z,9.52
2024-01-06T12:44:10.739Z,11.65
2024-01-06T12:46:37.338Z,7.15
2024-01-06T12:49:04.319Z,6.88
2024-01-06T12:51:31.543Z,16.10
2024-01-06T12:53:58.254Z,13.88
2024-01-06T12:56:24.896Z,7.22
2024-01-06T12:58:51.771Z,7.75
2024-01-06T13:01:18.873Z,17.58
2024-01-06T13:03:45.812Z,10.45
2024-01-06T13:06:12.685Z,12.23
2024-01-06T13:08:43.097Z,12.32
2024-01-06T13:11:10.189Z,13.38
2024-01-06T13:13:36.915Z,26.60
2024-01-06T13:16:07.876Z,16.60
2024-01-06T13:18:34.730Z,22.83
2024-01-06T13:21:01.559Z,7.18
2024-01-06T13:23:28.603Z,29.92
2024-01-06T13:25:58.771Z,35.10
2024-01-06T13:28:25.856Z,23.38
2024-01-06T13:31:05.023Z,21.30
2024-01-06T13:33:32.314Z,29.75
2024-01-06T13:38:27.138Z,18.42
2024-01-06T13:40:54.372Z,26.38
2024-01-06T13:43:20.942Z,37.45
2024-01-06T13:45:50.220Z,21.92
2024-01-06T13:48:18.619Z,25.10
2024-01-06T13:50:51.572Z,20.40
2024-01-06T13:53:18.420Z,12.73
2024-01-06T13:55:48.146Z,11.80
2024-01-06T13:58:14.729Z,13.38
2024-01-06T14:00:41.543Z,11.57
2024-01-06T14:03:08.396Z,12.48
2024-01-06T14:05:36.145Z,19.15
2024-01-06T14:08:03.219Z,18.95
2024-01-06T14:10:31.022Z,10.32
2024-01-06T14:12:57.926Z,15.20
2024-01-06T14:15:24.792Z,15.52
2024-01-06T14:18:04.094Z,17.25
2024-01-06T14:20:32.989Z,21.55
2024-01-06T14:23:02.674Z,19.95
2024-01-06T14:25:35.321Z,24.92
2024-01-06T14:28:02.498Z,24.17
2024-01-06T14:30:30.536Z,19.35
2024-01-06T14:32:57.252Z,21.85
2024-01-06T14:35:23.931Z,47.08
2024-01-06T14:37:54.781Z,37.80
2024-01-06T14:40:21.486Z,17.55
2024-01-06T14:42:50.996Z,16.13
2024-01-06T14:45:19.557Z,15.02
2024-01-06T14:47:48.357Z,17.30
2024-01-06T14:50:16.652Z,23.90
2024-01-06T14:55:11.199Z,15.73
2024-01-06T14:57:38.046Z,13.63
2024-01-06T15:00:08.940Z,21.08
2024-01-06T15:02:35.500Z,23.60
2024-01-06T15:05:02.372Z,17.73
2024-01-06T15:07:28.986Z,16.05
2024-01-06T15:09:55.713Z,21.50
2024-01-06T15:12:22.485Z,17.02
2024-01-06T15:14:49.107Z,22.70
2024-01-06T15:17:15.769Z,17.85
2024-01-06T15:19:42.735Z,40.97
2024-01-06T15:22:09.497Z,33.63
2024-01-06T15:24:36.125Z,22.98
2024-01-06T15:27:03.045Z,30.80
2024-01-06T15:29:29.647Z,21.98
2024-01-06T15:31:59.576Z,21.98
2024-01-06T15:34:26.575Z,22.88
2024-01-06T15:36:53.547Z,25.80
2024-01-06T15:39:20.299Z,29.00
2024-01-06T15:41:46.986Z,25.98
2024-01-06T15:44:13.566Z,20.50
2024-01-06T15:46:46.003Z,15.93
2024-01-06T15:49:13.064Z,12.15
2024-01-06T15:51:42.977Z,19.40
2024-01-06T15:54:09.792Z,22.83
2024-01-06T15:56:36.398Z,11.77
2024-01-06T15:59:03.025Z,22.48
2024-01-06T16:01:30.218Z,19.75
2024-01-06T16:03:56.925Z,18.83
2024-01-06T16:06:23.732Z,28.55
2024-01-06T16:08:53.578Z,21.85
2024-01-06T16:11:20.152Z,24.80
2024-01-06T16:13:46.793Z,24.42
2024-01-06T16:16:14.629Z,23.33
2024-01-06T16:18:41.494Z,22.10
2024-01-06T16:21:08.408Z,18.77
2024-01-06T16:23:35.231Z,17.95
2024-01-06T16:26:02.058Z,18.27
2024-01-06T16:28:28.632Z,11.55
2024-01-06T16:30:55.661Z,13.52
2024-01-06T16:33:22.484Z,13.07
2024-01-06T16:35:49.369Z,12.80
2024-01-06T16:38:15.917Z,14.68
2024-01-06T16:40:42.544Z,12.57
2024-01-06T16:43:09.322Z,13.98
2024-01-06T16:45:36.092Z,13.40
2024-01-06T16:48:02.917Z,7.75
2024-01-06T16:50:29.603Z,10.23
2024-01-06T16:52:56.181Z,8.25
2024-01-06T16:55:23.085Z,16.83
2024-01-06T16:57:49.713Z,14.18
2024-01-06T17:00:19.517Z,13.27
2024-01-06T17:02:46.189Z,10.05
2024-01-06T17:05:13.028Z,15.98
2024-01-06T17:07:42.350Z,14.25
2024-01-06T17:10:09.324Z,14.00
2024-01-06T17:12:36.064Z,12.77
2024-01-06T17:15:02.793Z,10.27
2024-01-06T17:17:29.952Z,13.93
2024-01-06T17:19:57.343Z,19.10
2024-01-06T17:24:50.566Z,23.65
2024-01-06T17:27:17.251Z,54.47
2024-01-06T17:29:51.783Z,33.35
2024-01-06T17:32:26.944Z,67.70
2024-01-06T17:34:56.468Z,35.97
2024-01-06T17:37:23.315Z,18.63
2024-01-06T17:39:49.961Z,15.65
2024-01-06T17:42:19.573Z,23.60
2024-01-06T17:44:47.376Z,35.40
2024-01-06T17:47:18.116Z,20.75
2024-01-06T17:49:44.754Z,17.13
2024-01-06T17:52:12.619Z,19.45
2024-01-06T17:54:39.813Z,11.85
2024-01-06T17:57:06.835Z,61.10
2024-01-06T17:59:36.213Z,21.02
2024-01-06T18:02:02.978Z,21.73
2024-01-06T18:04:29.687Z,23.90
2024-01-06T18:06:56.658Z,25.77
2024-01-06T18:09:23.527Z,18.70
2024-01-06T18:11:50.406Z,27.13
2024-01-06T18:14:17.447Z,40.05
2024-01-06T18:16:47.111Z,32.85
2024-01-06T18:19:14.057Z,25.25
2024-01-06T18:21:40.720Z,19.10
2024-01-06T18:24:07.386Z,21.45
2024-01-06T18:26:34.139Z,20.70
2024-01-06T18:29:06.324Z,17.20
2024-01-06T18:31:32.996Z,16.45
2024-01-06T18:34:00.554Z,28.75
2024-01-06T18:36:27.357Z,19.88
2024-01-06T18:38:54.212Z,19.80
2024-01-06T18:41:20.822Z,27.55
2024-01-06T18:43:47.482Z,27.65
2024-01-06T18:46:14.268Z,13.07
2024-01-06T18:48:41.179Z,15.32
2024-01-06T18:51:07.840Z,11.38
2024-01-06T18:53:36.333Z,9.00
2024-01-06T18:56:04.244Z,9.02
2024-01-06T18:58:30.838Z,6.28
2024-01-06T19:00:57.617Z,8.95
2024-01-06T19:03:24.398Z,8.80
2024-01-06T19:05:51.069Z,15.05
2024-01-06T19:08:17.854Z,22.88
2024-01-06T19:10:44.440Z,11.73
2024-01-06T19:13:11.059Z,22.45
2024-01-06T19:15:40.748Z,16.33
2024-01-06T19:18:07.525Z,14.73
2024-01-06T19:20:34.214Z,11.30
2024-01-06T19:23:06.996Z,17.52
2024-01-06T19:25:36.996Z,15.38
2024-01-06T19:30:30.554Z,8.90
2024-01-06T19:32:57.336Z,9.65
2024-01-06T19:35:23.980Z,9.95
2024-01-06T19:37:50.744Z,12.88
2024-01-06T19:40:19.630Z,11.35
2024-01-06T19:42:51.907Z,10.20
2024-01-06T19:45:19.176Z,8.57
2024-01-06T19:47:46.257Z,8.77
2024-01-06T19:50:13.232Z,5.32
2024-01-06T19:52:39.889Z,7.05
2024-01-06T19:55:11.275Z,7.53
2024-01-06T19:57:38.140Z,7.60
2024-01-06T20:00:05.892Z,5.40
2024-01-06T20:02:32.480Z,6.75
2024-01-06T20:04:59.212Z,8.02
2024-01-06T20:07:30.004Z,8.60
2024-01-06T20:09:58.201Z,7.80
2024-01-06T20:12:25.999Z,5.45
2024-01-06T20:14:58.471Z,5.13
2024-01-06T20:17:25.835Z,8.80
2024-01-06T20:22:20.035Z,6.43
2024-01-06T20:24:46.734Z,7.60
2024-01-06T20:27:13.650Z,10.20
2024-01-06T20:29:40.196Z,6.85
2024-01-06T20:32:07.465Z,4.95
2024-01-06T20:37:01.248Z,4.45
2024-01-06T20:39:27.986Z,6.50
2024-01-06T20:41:54.680Z,7.43
2024-01-06T20:44:21.850Z,5.15
2024-01-06T20:46:49.820Z,6.60
2024-01-06T20:49:16.547Z,6.80
2024-01-06T20:51:43.332Z,5.97
2024-01-06T20:54:09.967Z,12.88
2024-01-06T20:56:37.582Z,6.18
2024-01-06T20:59:04.219Z,5.75
2024-01-06T21:01:30.990Z,5.28
2024-01-06T21:03:57.893Z,3.70
2024-01-06T21:06:24.821Z,5.07
2024-01-06T21:08:51.533Z,6.60
2024-01-06T21:11:18.216Z,6.35
2024-01-06T21:13:44.887Z,6.47
2024-01-06T21:16:11.672Z,5.38
2024-01-06T21:18:38.889Z,7.28
2024-01-06T21:21:06.145Z,4.95
2024-01-06T21:26:12.910Z,7.30
2024-01-06T21:28:39.747Z,4.97
2024-01-06T21:31:12.935Z,8.13
2024-01-06T21:33:39.833Z,8.85
2024-01-06T21:36:07.425Z,5.88
2024-01-06T21:38:34.067Z,14.18
2024-01-06T21:41:01.852Z,31.67
2024-01-06T21:43:28.440Z,8.70
2024-01-06T21:45:55.911Z,9.55
2024-01-06T21:48:22.773Z,8.98
2024-01-06T21:50:49.729Z,10.45
2024-01-06T21:53:16.544Z,6.03
2024-01-06T21:55:44.191Z,6.40
2024-01-06T21:58:10.917Z,8.10
2024-01-06T22:00:37.624Z,11.48
2024-01-06T22:03:05.674Z,11.52
2024-01-06T22:05:32.386Z,7.30
2024-01-06T22:07:59.065Z,11.70
2024-01-06T22:10:33.295Z,8.38
2024-01-06T22:13:01.398Z,7.38
2024-01-06T22:15:28.242Z,6.93
2024-01-06T22:17:56.036Z,9.55
2024-01-06T22:20:22.997Z,8.95
2024-01-06T22:22:49.915Z,11.38
2024-01-06T22:25:16.849Z,6.38
2024-01-06T22:27:43.585Z,12.85
2024-01-06T22:30:12.021Z,10.02
2024-01-06T22:32:39.245Z,10.18
2024-01-06T22:35:06.322Z,8.98
2024-01-06T22:37:32.996Z,9.75
2024-01-06T22:39:59.674Z,7.47
2024-01-06T22:42:26.529Z,7.07
2024-01-06T22:44:53.060Z,9.98
2024-01-06T22:47:19.909Z,13.50
2024-01-06T22:49:46.445Z,8.15
2024-01-06T22:52:13.321Z,10.63
2024-01-06T22:54:43.472Z,7.78
2024-01-06T22:57:10.057Z,8.45
2024-01-06T22:59:36.957Z,11.07
2024-01-06T23:02:03.641Z,10.77
2024-01-06T23:04:30.451Z,15.35
2024-01-06T23:06:57.798Z,19.45
2024-01-06T23:11:52.202Z,12.57
2024-01-06T23:14:18.823Z,7.32
2024-01-06T23:16:48.461Z,9.38
2024-01-06T23:19:15.697Z,11.38
2024-01-06T23:21:44.054Z,10.23
2024-01-06T23:24:13.962Z,14.05
2024-01-06T23:26:40.612Z,12.73
2024-01-06T23:29:10.341Z,7.60
2024-01-06T23:31:37.860Z,12.20
2024-01-06T23:34:05.778Z,13.68
2024-01-06T23:36:37.030Z,15.85
2024-01-06T23:39:04.799Z,8.98
2024-01-06T23:41:31.394Z,10.73
2024-01-06T23:43:58.026Z,9.00
2024-01-06T23:49:15.845Z,7.15
2024-01-06T23:51:42.549Z,10.60
2024-01-06T23:54:09.173Z,7.20
2024-01-06T23:56:38.912Z,9.38
2024-01-06T23:59:05.522Z,9.98
